createdAt,value
2023-03-07T13:09:53.622Z,18.93
2023-03-07T13:12:58.146Z,14.25
2023-03-07T13:16:07.658Z,11.57
2023-03-07T13:19:55.051Z,9.78
2023-03-07T13:23:12.072Z,8.83
2023-03-07T13:26:25.517Z,8.24
2023-03-07T13:30:18.069Z,7.86
2023-03-07T13:33:30.134Z,7.51
2023-03-07T13:36:39.859Z,7.32
2023-03-07T13:44:39.772Z,7.05
2023-03-07T13:47:44.418Z,6.97
2023-03-07T13:51:09.440Z,6.97
2023-03-07T13:54:15.578Z,6.99
2023-03-07T13:57:23.645Z,6.91
2023-03-07T14:00:51.042Z,6.82
2023-03-07T14:04:04.136Z,6.86
2023-03-07T14:07:21.357Z,6.83
2023-03-07T14:10:29.180Z,6.79
2023-03-07T14:14:15.816Z,6.68
2023-03-07T14:17:44.554Z,6.64
2023-03-07T14:21:06.548Z,6.59
2023-03-07T14:24:42.725Z,6.47
2023-03-07T14:27:54.055Z,6.40
2023-03-07T14:31:01.207Z,6.43
2023-03-07T14:34:19.240Z,6.37
2023-03-07T14:37:27.422Z,6.36
2023-03-07T14:40:43.219Z,6.35
2023-03-07T14:44:06.348Z,6.46
2023-03-07T14:47:31.430Z,6.51
2023-03-07T14:50:43.933Z,6.58
2023-03-07T14:53:48.670Z,6.59
2023-03-07T14:56:55.129Z,6.52
2023-03-07T15:00:14.609Z,6.43
2023-03-07T15:03:18.481Z,6.40
2023-03-07T15:06:26.560Z,6.35
2023-03-07T15:09:32.140Z,6.28
2023-03-07T15:12:36.143Z,6.18
2023-03-07T15:15:47.251Z,6.10
2023-03-07T15:18:58.552Z,6.10
2023-03-07T15:22:15.010Z,6.06
2023-03-07T15:25:24.469Z,6.05
2023-03-07T15:28:35.469Z,6.01
2023-03-07T15:31:52.875Z,6.04
2023-03-07T15:35:01.968Z,6.03
2023-03-07T15:38:19.051Z,5.90
2023-03-07T15:41:33.595Z,5.82
2023-03-07T15:44:38.053Z,5.74
2023-03-07T15:47:42.647Z,5.73
2023-03-07T15:50:54.209Z,5.71
2023-03-07T15:54:14.008Z,5.66
2023-03-07T15:57:23.095Z,5.63
2023-03-07T16:00:34.848Z,5.54
2023-03-07T16:03:52.124Z,5.44
2023-03-07T16:06:56.549Z,5.35
2023-03-07T16:10:01.968Z,5.27
2023-03-07T16:13:06.124Z,5.16
2023-03-07T16:16:22.304Z,5.09
2023-03-07T16:19:26.745Z,4.98
2023-03-07T16:22:30.911Z,4.90
2023-03-07T16:25:37.044Z,4.87
2023-03-07T16:28:43.236Z,4.83
2023-03-07T16:31:48.282Z,4.79
2023-03-07T16:34:55.535Z,4.71
2023-03-07T16:38:00.524Z,4.70
2023-03-07T16:41:15.798Z,4.64
2023-03-07T16:44:23.855Z,4.65
2023-03-07T16:47:27.720Z,4.67
2023-03-07T16:50:34.643Z,4.62
2023-03-07T16:53:38.358Z,4.61
2023-03-07T16:56:49.524Z,4.55
2023-03-07T16:59:53.298Z,4.60
2023-03-07T17:03:02.385Z,4.60
2023-03-07T17:06:06.346Z,4.68
2023-03-07T17:09:12.799Z,4.69
2023-03-07T17:12:21.203Z,4.68
2023-03-07T17:15:30.885Z,4.62
2023-03-07T17:18:34.872Z,4.63
2023-03-07T17:21:38.866Z,4.69
2023-03-07T17:24:42.462Z,4.69
2023-03-07T17:27:53.986Z,4.68
2023-03-07T17:30:57.752Z,4.72
2023-03-07T17:34:01.970Z,4.78
2023-03-07T17:37:07.204Z,4.81
2023-03-07T17:40:14.084Z,4.86
2023-03-07T17:43:19.806Z,4.92
2023-03-07T17:46:24.929Z,4.95
2023-03-07T17:49:35.954Z,5.00
2023-03-07T17:52:40.186Z,5.07
2023-03-07T17:55:43.869Z,5.13
2023-03-07T17:58:50.059Z,5.21
2023-03-07T18:01:54.054Z,5.25
2023-03-07T18:04:58.123Z,5.31
2023-03-07T18:08:01.935Z,5.35
2023-03-07T18:11:09.242Z,5.39
2023-03-07T18:14:14.553Z,5.45
2023-03-07T18:17:19.568Z,5.46
